Time;durP1;ratioP1;P1;durP2;ratioP2;P2;SDS_P1;SDS_P2;PMS_P1;PMS_P2;Temp;Humidity;BMP_temperature;BMP_pressure;BME280_temperature;BME280_humidity;BME280_pressure;Samples;Min_cycle;Max_cycle;Signal;HPM_P1;HPM_P2
2021/08/07 00:01:28;;;;;;;7.93;5.50;;;18.30;99.90;;;;;;5090479;28;20259;-70
2021/08/07 00:03:55;;;;;;;6.65;4.13;;;18.30;99.90;;;;;;5090642;28;20210;-71
2021/08/07 00:06:22;;;;;;;8.50;5.65;;;18.20;99.90;;;;;;5090632;28;20236;-71
2021/08/07 00:08:49;;;;;;;5.85;4.00;;;18.20;99.90;;;;;;5090044;28;20232;-71
2021/08/07 00:11:16;;;;;;;4.82;4.05;;;18.10;99.90;;;;;;5090070;28;20209;-71
2021/08/07 00:13:44;;;;;;;6.72;4.03;;;18.10;99.90;;;;;;5090400;28;20233;-71
2021/08/07 00:16:12;;;;;;;11.38;6.20;;;18.20;99.90;;;;;;5090160;28;20209;-71
2021/08/07 00:18:40;;;;;;;6.43;3.85;;;18.10;99.90;;;;;;5090445;28;20205;-72
2021/08/07 00:21:07;;;;;;;4.60;3.70;;;18.20;99.90;;;;;;5089924;28;20293;-71
2021/08/07 00:23:34;;;;;;;5.05;3.72;;;18.20;99.90;;;;;;5090264;28;20255;-71
2021/08/07 00:26:01;;;;;;;3.83;3.22;;;18.20;99.90;;;;;;5089777;28;20251;-72
2021/08/07 00:28:28;;;;;;;4.63;2.63;;;18.20;99.90;;;;;;5090314;28;20270;-72
2021/08/07 00:30:55;;;;;;;5.47;2.95;;;18.20;99.90;;;;;;5090784;28;20255;-70
2021/08/07 00:33:22;;;;;;;6.68;3.90;;;18.30;99.90;;;;;;5090237;28;20209;-71
2021/08/07 00:35:50;;;;;;;8.05;3.63;;;18.30;99.90;;;;;;5089998;28;20282;-71
2021/08/07 00:38:17;;;;;;;10.07;3.22;;;18.30;99.90;;;;;;5089976;28;20239;-72
2021/08/07 00:40:44;;;;;;;6.00;3.40;;;18.30;99.90;;;;;;5090359;28;20217;-72
2021/08/07 00:43:12;;;;;;;4.93;3.30;;;18.20;99.90;;;;;;5091958;28;20206;-72
2021/08/07 00:45:39;;;;;;;10.18;3.17;;;18.20;99.90;;;;;;5093832;28;20673;-71
2021/08/07 00:48:08;;;;;;;6.30;2.97;;;18.20;99.90;;;;;;5093255;28;20608;-72
2021/08/07 00:50:35;;;;;;;8.10;3.40;;;18.10;99.90;;;;;;5093765;28;20668;-72
2021/08/07 00:53:05;;;;;;;7.18;2.92;;;18.10;99.90;;;;;;5093143;28;20256;-71
2021/08/07 00:55:33;;;;;;;3.30;2.72;;;18.10;99.90;;;;;;5093855;28;20279;-71
2021/08/07 00:58:00;;;;;;;4.72;3.05;;;18.10;99.90;;;;;;5093324;28;20577;-72
2021/08/07 01:00:27;;;;;;;5.68;2.88;;;18.10;99.90;;;;;;5093632;28;20202;-72
2021/08/07 01:03:03;;;;;;;5.40;3.05;;;18.10;99.90;;;;;;5094016;28;20251;-71
2021/08/07 01:05:36;;;;;;;6.25;2.97;;;18.00;99.90;;;;;;5093446;28;20205;-71
2021/08/07 01:08:14;;;;;;;4.28;3.10;;;18.00;99.90;;;;;;5093307;28;20197;-71
2021/08/07 01:10:49;;;;;;;6.20;4.05;;;17.90;99.90;;;;;;5093319;28;20201;-71
2021/08/07 01:13:20;;;;;;;5.80;2.67;;;17.90;99.90;;;;;;5093369;28;20297;-71
2021/08/07 01:15:51;;;;;;;7.25;4.05;;;17.90;99.90;;;;;;5093245;28;20233;-71
2021/08/07 01:18:22;;;;;;;5.82;3.72;;;17.90;99.90;;;;;;5092846;28;20747;-72
2021/08/07 01:20:52;;;;;;;7.05;3.45;;;17.90;99.90;;;;;;5092798;28;20553;-73
2021/08/07 01:23:33;;;;;;;7.05;3.35;;;17.90;99.90;;;;;;5092881;28;20214;-73
2021/08/07 01:26:08;;;;;;;5.07;2.88;;;17.90;99.90;;;;;;5092855;28;20300;-72
2021/08/07 01:28:39;;;;;;;4.80;3.08;;;17.90;99.90;;;;;;5093165;28;20213;-72
2021/08/07 01:31:09;;;;;;;5.43;2.67;;;17.90;99.90;;;;;;5092631;28;20197;-74
2021/08/07 01:33:36;;;;;;;6.80;3.08;;;17.90;99.90;;;;;;5092792;28;20738;-72
2021/08/07 01:36:04;;;;;;;5.00;3.28;;;18.00;99.90;;;;;;5092534;28;20282;-72
2021/08/07 01:38:31;;;;;;;5.40;2.78;;;18.00;99.90;;;;;;5092031;28;20205;-72
2021/08/07 01:40:58;;;;;;;5.43;3.25;;;18.00;99.90;;;;;;5107699;28;20213;-72
2021/08/07 01:43:25;;;;;;;7.72;3.20;;;18.10;99.90;;;;;;5102979;28;20216;-73
2021/08/07 01:45:53;;;;;;;5.32;2.60;;;18.10;99.90;;;;;;5113802;28;20209;-75
2021/08/07 01:48:29;;;;;;;6.05;3.10;;;18.20;99.90;;;;;;5112345;28;20284;-74
2021/08/07 01:51:04;;;;;;;6.57;3.15;;;18.20;99.90;;;;;;5113227;28;20208;-72
2021/08/07 01:53:33;;;;;;;4.82;2.80;;;18.20;99.90;;;;;;5112473;28;20671;-74
2021/08/07 01:56:04;;;;;;;4.53;3.08;;;18.30;99.90;;;;;;5112180;28;20761;-75
2021/08/07 01:58:34;;;;;;;5.80;3.20;;;18.40;99.90;;;;;;5113140;27;20200;-74
2021/08/07 02:01:03;;;;;;;4.65;2.97;;;18.40;99.90;;;;;;5112948;27;20253;-73
2021/08/07 02:03:33;;;;;;;8.20;3.45;;;18.40;99.90;;;;;;5112590;28;20213;-73
2021/08/07 02:06:00;;;;;;;4.97;3.00;;;18.40;99.90;;;;;;5112191;28;20742;-71
2021/08/07 02:08:27;;;;;;;4.95;3.80;;;18.40;99.90;;;;;;5112726;28;20664;-71
2021/08/07 02:10:55;;;;;;;7.20;3.75;;;18.50;99.90;;;;;;5112813;28;20205;-73
2021/08/07 02:13:22;;;;;;;4.85;4.13;;;18.50;99.90;;;;;;5112420;28;20205;-74
2021/08/07 02:15:51;;;;;;;6.97;4.13;;;18.50;99.90;;;;;;5112721;28;20329;-71
2021/08/07 02:18:22;;;;;;;5.93;3.53;;;18.40;99.90;;;;;;5111917;28;20215;-74
2021/08/07 02:20:50;;;;;;;6.10;3.25;;;18.40;99.90;;;;;;5112736;28;20261;-73
2021/08/07 02:23:18;;;;;;;9.45;4.28;;;18.50;99.90;;;;;;5111709;28;20213;-73
2021/08/07 02:25:49;;;;;;;6.10;2.92;;;18.40;99.90;;;;;;5112388;28;20213;-72
2021/08/07 02:28:17;;;;;;;5.53;2.88;;;18.40;99.90;;;;;;5111906;28;20266;-73
2021/08/07 02:30:44;;;;;;;5.28;2.65;;;18.50;99.90;;;;;;5112663;28;20266;-72
2021/08/07 02:33:12;;;;;;;8.90;3.05;;;18.60;99.90;;;;;;5111511;28;20741;-72
2021/08/07 02:35:41;;;;;;;7.07;2.85;;;18.60;99.90;;;;;;5112130;28;20224;-75
2021/08/07 02:38:08;;;;;;;4.82;2.55;;;18.70;99.90;;;;;;5111531;28;20262;-73
2021/08/07 02:40:36;;;;;;;5.63;2.78;;;18.70;99.90;;;;;;5112426;28;20205;-75
2021/08/07 02:43:03;;;;;;;3.10;2.72;;;18.60;99.90;;;;;;5111626;28;20637;-74
2021/08/07 02:45:31;;;;;;;6.32;2.72;;;18.60;99.90;;;;;;5111858;28;20224;-72
2021/08/07 02:47:58;;;;;;;15.57;3.15;;;18.60;99.90;;;;;;5111657;28;20209;-73
2021/08/07 02:50:27;;;;;;;5.97;2.92;;;18.60;99.90;;;;;;5112308;28;20253;-76
2021/08/07 02:52:55;;;;;;;4.43;3.20;;;18.70;99.90;;;;;;5112224;28;20201;-74
2021/08/07 02:55:23;;;;;;;7.68;3.05;;;18.70;99.90;;;;;;5111915;28;20278;-76
2021/08/07 02:57:52;;;;;;;4.03;2.50;;;18.70;99.90;;;;;;5112232;28;20200;-72
2021/08/07 03:00:19;;;;;;;3.58;2.90;;;18.70;99.90;;;;;;5111221;28;20243;-72
2021/08/07 03:02:46;;;;;;;8.10;2.95;;;18.70;99.90;;;;;;5111563;28;20254;-72
2021/08/07 03:05:13;;;;;;;3.70;2.80;;;18.70;99.90;;;;;;5110264;28;20562;-73
2021/08/07 03:07:40;;;;;;;4.70;2.60;;;18.60;99.90;;;;;;5111347;28;20205;-71
2021/08/07 03:10:10;;;;;;;4.47;3.10;;;18.60;99.90;;;;;;5111478;28;20273;-72
2021/08/07 03:12:37;;;;;;;8.05;3.47;;;18.60;99.90;;;;;;5111509;28;20217;-72
2021/08/07 03:15:06;;;;;;;5.97;3.08;;;18.70;99.90;;;;;;5110773;28;20836;-72
2021/08/07 03:17:34;;;;;;;6.60;2.95;;;18.70;99.90;;;;;;5111152;28;20672;-72
2021/08/07 03:20:00;;;;;;;5.68;2.97;;;18.80;99.90;;;;;;5111018;28;20204;-72
2021/08/07 03:22:27;;;;;;;5.07;2.60;;;18.80;99.90;;;;;;5111314;28;20209;-72
2021/08/07 03:24:54;;;;;;;5.38;2.75;;;18.70;99.90;;;;;;5111968;28;20254;-73
2021/08/07 03:27:23;;;;;;;8.13;3.70;;;18.80;99.90;;;;;;5111421;28;20252;-72
2021/08/07 03:29:50;;;;;;;8.75;4.25;;;18.80;99.90;;;;;;5110941;28;20205;-72
2021/08/07 03:32:17;;;;;;;3.60;2.50;;;18.90;99.90;;;;;;5111037;28;20212;-72
2021/08/07 03:34:44;;;;;;;6.72;2.83;;;18.80;99.90;;;;;;5110819;28;20201;-72
2021/08/07 03:37:11;;;;;;;5.10;2.63;;;18.80;99.90;;;;;;5110991;28;20208;-73
2021/08/07 03:39:39;;;;;;;7.35;3.67;;;18.80;99.90;;;;;;5111056;28;20208;-73
2021/08/07 03:42:07;;;;;;;4.25;2.83;;;18.80;99.90;;;;;;5110933;28;20217;-73
2021/08/07 03:44:35;;;;;;;5.80;2.90;;;18.80;99.90;;;;;;5110891;28;20196;-71
2021/08/07 03:47:02;;;;;;;7.13;2.92;;;18.90;99.90;;;;;;5110608;28;20250;-72
2021/08/07 03:49:29;;;;;;;4.15;2.28;;;19.00;99.90;;;;;;5111148;28;20258;-72
2021/08/07 03:51:56;;;;;;;10.88;4.32;;;18.90;99.90;;;;;;5111283;28;20269;-72
2021/08/07 03:54:23;;;;;;;6.13;3.63;;;18.90;99.90;;;;;;5111426;28;20668;-73
2021/08/07 03:56:50;;;;;;;5.07;3.03;;;18.80;99.90;;;;;;5110779;28;20236;-72
2021/08/07 03:59:17;;;;;;;4.80;3.40;;;18.70;99.90;;;;;;5110407;28;20234;-72
2021/08/07 04:01:45;;;;;;;5.53;3.42;;;18.70;99.90;;;;;;5110594;28;20205;-72
2021/08/07 04:04:12;;;;;;;3.97;3.28;;;18.70;99.90;;;;;;5110368;28;20197;-71
2021/08/07 04:06:39;;;;;;;6.90;3.63;;;18.80;99.90;;;;;;5111113;28;20212;-72
2021/08/07 04:09:06;;;;;;;4.53;3.10;;;18.80;99.90;;;;;;5110345;28;20250;-72
2021/08/07 04:11:33;;;;;;;5.60;3.42;;;18.90;99.90;;;;;;5110980;28;20201;-72
2021/08/07 04:14:00;;;;;;;6.93;3.25;;;18.90;99.90;;;;;;5109888;28;20216;-72
2021/08/07 04:16:27;;;;;;;6.40;3.25;;;18.90;99.90;;;;;;5111768;28;20282;-72
2021/08/07 04:18:55;;;;;;;10.93;3.65;;;18.90;99.90;;;;;;5115361;27;20676;-72
2021/08/07 04:21:22;;;;;;;6.13;2.85;;;18.80;99.90;;;;;;5114665;28;20205;-72
2021/08/07 04:23:49;;;;;;;3.40;3.08;;;18.80;99.90;;;;;;5115057;28;20258;-73
2021/08/07 04:26:16;;;;;;;3.67;3.22;;;18.80;99.90;;;;;;5114124;28;20293;-77
2021/08/07 04:28:43;;;;;;;4.22;2.80;;;18.70;99.90;;;;;;5100111;28;20201;-76
2021/08/07 04:31:10;;;;;;;4.80;3.22;;;18.60;99.90;;;;;;5093647;28;20618;-74
2021/08/07 04:33:37;;;;;;;6.63;3.38;;;18.60;99.90;;;;;;5094087;28;20624;-73
2021/08/07 04:36:06;;;;;;;4.70;2.80;;;18.60;99.90;;;;;;5093424;28;20225;-74
2021/08/07 04:38:33;;;;;;;2.72;2.38;;;18.70;99.90;;;;;;5094115;28;20262;-73
2021/08/07 04:41:00;;;;;;;5.75;2.88;;;18.70;99.90;;;;;;5093301;28;20665;-74
2021/08/07 04:43:29;;;;;;;6.50;2.58;;;18.80;99.90;;;;;;5093488;28;20209;-74
2021/08/07 04:45:56;;;;;;;5.35;2.80;;;18.80;99.90;;;;;;5094013;28;20212;-71
2021/08/07 04:48:23;;;;;;;4.10;2.22;;;18.80;99.90;;;;;;5108667;28;20205;-73
2021/08/07 04:50:50;;;;;;;5.13;2.58;;;18.80;99.90;;;;;;5114783;28;20257;-75
2021/08/07 04:53:18;;;;;;;4.03;3.28;;;18.60;99.90;;;;;;5113660;28;20730;-74
2021/08/07 04:55:45;;;;;;;7.05;2.97;;;18.60;99.90;;;;;;5113272;28;20791;-74
2021/08/07 04:58:14;;;;;;;3.40;2.00;;;18.50;99.90;;;;;;5114107;28;20281;-74
2021/08/07 05:00:41;;;;;;;4.65;2.60;;;18.50;99.90;;;;;;5114003;28;20203;-74
2021/08/07 05:03:08;;;;;;;8.30;3.03;;;18.50;99.90;;;;;;5113408;28;20277;-74
2021/08/07 05:05:35;;;;;;;6.82;3.53;;;18.50;99.90;;;;;;5114064;28;20211;-74
2021/08/07 05:08:02;;;;;;;5.90;2.88;;;18.50;99.90;;;;;;5113752;28;20197;-73
2021/08/07 05:10:30;;;;;;;6.07;3.22;;;18.50;99.90;;;;;;5113497;28;20201;-73
2021/08/07 05:12:57;;;;;;;4.53;2.60;;;18.50;99.90;;;;;;5085676;28;20205;-71
2021/08/07 05:15:24;;;;;;;6.88;3.35;;;18.50;99.90;;;;;;5114240;28;20228;-74
2021/08/07 05:17:54;;;;;;;6.07;3.00;;;18.50;99.90;;;;;;5113240;27;20200;-74
2021/08/07 05:20:21;;;;;;;4.90;2.10;;;18.50;99.90;;;;;;5113629;28;20291;-74
2021/08/07 05:22:48;;;;;;;6.40;2.55;;;18.60;99.90;;;;;;5112943;28;20258;-79
2021/08/07 05:25:15;;;;;;;4.03;2.58;;;18.60;99.90;;;;;;5113774;28;20213;-81
2021/08/07 05:27:44;;;;;;;5.50;2.35;;;18.50;99.90;;;;;;5112889;28;20202;-80
2021/08/07 05:30:12;;;;;;;4.70;2.75;;;18.50;99.90;;;;;;5113646;28;20252;-81
2021/08/07 05:32:39;;;;;;;7.55;2.92;;;18.50;99.90;;;;;;5113586;28;20664;-81
2021/08/07 05:35:07;;;;;;;5.28;2.80;;;18.50;99.90;;;;;;5113468;28;20649;-83
2021/08/07 05:37:38;;;;;;;7.45;3.08;;;18.60;99.90;;;;;;5113529;28;20212;-77
2021/08/07 05:40:06;;;;;;;8.63;3.45;;;18.50;99.90;;;;;;5112580;28;20197;-75
2021/08/07 05:42:33;;;;;;;7.43;2.58;;;18.60;99.90;;;;;;5113359;28;20621;-73
2021/08/07 05:45:01;;;;;;;4.60;2.58;;;18.60;99.90;;;;;;5112561;28;20737;-72
2021/08/07 05:47:28;;;;;;;5.28;2.78;;;18.60;99.90;;;;;;5112936;28;20216;-72
2021/08/07 05:49:55;;;;;;;6.20;2.35;;;18.60;99.90;;;;;;5113035;28;20668;-72
2021/08/07 05:52:24;;;;;;;4.82;2.88;;;18.60;99.90;;;;;;5112844;28;20205;-73
2021/08/07 05:54:51;;;;;;;3.20;2.90;;;18.60;99.90;;;;;;5112740;28;20296;-72
2021/08/07 05:57:18;;;;;;;7.78;3.72;;;18.60;99.90;;;;;;5112639;28;20232;-73
2021/08/07 05:59:45;;;;;;;4.45;3.25;;;18.60;99.90;;;;;;5113124;28;20233;-74
2021/08/07 06:02:13;;;;;;;6.18;2.42;;;18.60;99.90;;;;;;5112789;28;20208;-74
2021/08/07 06:04:40;;;;;;;4.38;2.88;;;18.60;99.90;;;;;;5100432;28;20263;-72
2021/08/07 06:07:07;;;;;;;5.35;2.60;;;18.60;99.90;;;;;;5098561;28;20287;-72
2021/08/07 06:09:34;;;;;;;5.90;2.80;;;18.60;99.90;;;;;;5093218;28;20562;-72
2021/08/07 06:12:01;;;;;;;5.03;2.70;;;18.60;99.90;;;;;;5091637;28;20605;-74
2021/08/07 06:14:29;;;;;;;5.35;3.00;;;18.70;99.90;;;;;;5092340;28;20205;-75
2021/08/07 06:16:56;;;;;;;4.30;2.13;;;18.80;99.90;;;;;;5091885;28;20260;-79
2021/08/07 06:19:24;;;;;;;7.57;2.97;;;19.00;99.90;;;;;;5092244;28;20278;-76
2021/08/07 06:21:52;;;;;;;3.58;3.00;;;19.20;99.90;;;;;;5091517;28;20202;-73
2021/08/07 06:24:18;;;;;;;4.82;2.33;;;19.50;99.90;;;;;;5091824;28;20636;-73
2021/08/07 06:26:45;;;;;;;4.82;3.53;;;19.60;99.90;;;;;;5091772;28;20202;-74
2021/08/07 06:29:13;;;;;;;4.57;2.83;;;19.60;99.90;;;;;;5091919;28;20259;-74
2021/08/07 06:31:40;;;;;;;8.05;2.92;;;19.60;99.90;;;;;;5091947;28;20258;-73
2021/08/07 06:34:07;;;;;;;8.05;3.03;;;19.70;99.90;;;;;;5091585;28;20254;-72
2021/08/07 06:36:35;;;;;;;3.72;2.80;;;19.80;99.90;;;;;;5091600;28;20665;-72
2021/08/07 06:39:03;;;;;;;3.28;2.30;;;19.90;99.90;;;;;;5091040;28;20557;-72
2021/08/07 06:41:30;;;;;;;4.55;2.63;;;19.90;99.90;;;;;;5092084;28;20242;-74
2021/08/07 06:43:57;;;;;;;6.55;2.42;;;19.90;99.90;;;;;;5091256;28;20277;-73
2021/08/07 06:46:24;;;;;;;6.03;2.28;;;20.00;99.90;;;;;;5091313;28;20222;-74
2021/08/07 06:48:51;;;;;;;4.03;2.70;;;20.00;99.90;;;;;;5109225;28;20642;-79
2021/08/07 06:51:17;;;;;;;6.25;2.90;;;20.10;99.90;;;;;;5111719;28;20205;-73
2021/08/07 06:53:46;;;;;;;8.20;3.03;;;20.00;99.90;;;;;;5111413;28;20204;-73
2021/08/07 06:56:13;;;;;;;3.53;2.58;;;19.90;99.90;;;;;;5111642;28;20712;-72
2021/08/07 06:58:40;;;;;;;3.42;2.38;;;20.00;99.90;;;;;;5102441;28;20197;-74
2021/08/07 07:01:07;;;;;;;4.43;3.05;;;20.00;99.90;;;;;;5105166;28;20562;-78
2021/08/07 07:03:34;;;;;;;5.45;4.22;;;20.00;99.90;;;;;;5111792;28;20676;-77
2021/08/07 07:06:01;;;;;;;5.68;2.78;;;19.90;99.90;;;;;;5110801;28;20205;-73
2021/08/07 07:08:27;;;;;;;4.55;2.97;;;19.80;99.90;;;;;;5106281;28;20213;-72
2021/08/07 07:10:56;;;;;;;4.72;2.33;;;19.80;99.90;;;;;;5103629;28;20201;-73
2021/08/07 07:13:23;;;;;;;6.82;3.17;;;19.80;99.90;;;;;;5111346;28;20615;-73
2021/08/07 07:15:50;;;;;;;6.88;3.22;;;19.80;99.90;;;;;;5097220;28;20201;-73
2021/08/07 07:18:17;;;;;;;6.65;2.83;;;19.80;99.90;;;;;;5111648;28;20261;-72
2021/08/07 07:20:44;;;;;;;7.70;2.70;;;19.90;99.90;;;;;;5111279;28;20200;-74
2021/08/07 07:23:12;;;;;;;4.63;2.72;;;19.90;99.90;;;;;;5111103;27;20214;-74
2021/08/07 07:25:39;;;;;;;4.75;2.88;;;20.10;99.90;;;;;;5111514;28;20209;-73
2021/08/07 07:28:07;;;;;;;3.60;2.55;;;20.00;99.90;;;;;;5110782;28;20212;-73
2021/08/07 07:30:35;;;;;;;2.80;2.35;;;20.20;99.90;;;;;;5111584;28;20204;-73
2021/08/07 07:33:02;;;;;;;5.22;3.47;;;20.40;99.90;;;;;;5110757;28;20197;-74
2021/08/07 07:35:29;;;;;;;5.35;3.40;;;20.50;99.90;;;;;;5111275;28;20261;-73
2021/08/07 07:37:56;;;;;;;5.90;3.33;;;20.40;99.90;;;;;;5110809;28;20240;-73
2021/08/07 07:40:24;;;;;;;4.32;2.63;;;20.20;99.90;;;;;;5110835;28;20250;-73
2021/08/07 07:42:50;;;;;;;7.53;3.42;;;20.30;99.90;;;;;;5110534;28;20625;-75
2021/08/07 07:45:19;;;;;;;5.85;3.40;;;20.30;99.90;;;;;;5106049;28;20257;-73
2021/08/07 07:47:46;;;;;;;4.22;2.78;;;19.90;99.90;;;;;;5103549;28;20234;-71
2021/08/07 07:50:13;;;;;;;3.22;2.72;;;19.90;99.90;;;;;;5105294;28;20262;-72
2021/08/07 07:52:40;;;;;;;4.30;2.75;;;20.10;99.90;;;;;;5101402;28;20205;-72
2021/08/07 07:55:08;;;;;;;5.82;3.10;;;20.20;99.90;;;;;;5103490;28;20205;-72
2021/08/07 07:57:35;;;;;;;4.30;2.55;;;20.30;99.90;;;;;;5101730;28;20232;-73
2021/08/07 08:00:02;;;;;;;4.10;3.22;;;20.50;99.90;;;;;;5109768;28;20567;-75
2021/08/07 08:02:30;;;;;;;3.35;2.40;;;21.20;99.90;;;;;;5097164;28;20258;-71
2021/08/07 08:04:57;;;;;;;4.78;3.55;;;21.40;99.90;;;;;;5110336;28;20201;-73
2021/08/07 08:07:24;;;;;;;3.65;2.90;;;21.10;99.90;;;;;;5090278;28;20254;-73
2021/08/07 08:09:51;;;;;;;3.85;3.08;;;20.70;99.90;;;;;;5090195;28;20275;-73
2021/08/07 08:12:18;;;;;;;5.65;2.50;;;20.80;99.90;;;;;;5088994;28;20278;-74
2021/08/07 08:14:45;;;;;;;5.22;3.30;;;20.90;99.90;;;;;;5089877;28;20630;-73
2021/08/07 08:17:12;;;;;;;4.88;2.72;;;20.80;99.90;;;;;;5088881;28;20661;-73
2021/08/07 08:19:41;;;;;;;6.50;3.63;;;20.70;99.90;;;;;;5090280;28;20262;-72
2021/08/07 08:22:08;;;;;;;6.45;3.00;;;20.80;99.90;;;;;;5088424;28;20205;-73
2021/08/07 08:24:35;;;;;;;4.85;2.92;;;21.10;99.90;;;;;;5089100;28;20251;-73
2021/08/07 08:27:02;;;;;;;5.53;3.33;;;21.20;99.90;;;;;;5088938;28;20250;-73
2021/08/07 08:29:29;;;;;;;4.00;3.42;;;21.10;99.90;;;;;;5089780;28;20212;-72
2021/08/07 08:31:56;;;;;;;4.20;2.83;;;20.90;99.90;;;;;;5089550;28;20201;-73
2021/08/07 08:34:23;;;;;;;4.07;3.20;;;20.90;99.90;;;;;;5088872;28;20288;-73
2021/08/07 08:36:51;;;;;;;7.70;4.25;;;20.70;99.90;;;;;;5089339;28;20229;-73
2021/08/07 08:39:18;;;;;;;5.35;3.35;;;20.60;99.90;;;;;;5090231;28;20206;-72
2021/08/07 08:41:45;;;;;;;5.50;3.03;;;20.80;99.90;;;;;;5090302;28;20202;-72
2021/08/07 08:44:14;;;;;;;4.05;3.47;;;20.80;99.90;;;;;;5089743;28;20267;-72
2021/08/07 08:46:42;;;;;;;4.93;3.35;;;20.80;99.90;;;;;;5090112;28;20210;-73
2021/08/07 08:49:09;;;;;;;7.28;3.00;;;20.80;99.90;;;;;;5082373;28;20299;-73
2021/08/07 08:51:37;;;;;;;6.22;3.88;;;20.80;99.90;;;;;;5109875;28;20619;-72
2021/08/07 08:54:06;;;;;;;3.65;2.88;;;21.00;99.90;;;;;;5106568;28;20200;-72
2021/08/07 08:56:34;;;;;;;4.88;3.78;;;21.50;99.90;;;;;;5109229;28;20293;-73
2021/08/07 08:59:02;;;;;;;4.50;4.10;;;22.00;99.90;;;;;;5108232;28;20252;-72
2021/08/07 09:01:30;;;;;;;7.97;3.42;;;22.30;99.90;;;;;;5109389;28;20288;-72
2021/08/07 09:03:57;;;;;;;5.40;3.72;;;22.40;99.90;;;;;;5109228;28;20238;-72
2021/08/07 09:06:24;;;;;;;5.53;3.72;;;22.10;99.90;;;;;;5108133;28;20746;-72
2021/08/07 09:09:03;;;;;;;4.88;2.97;;;21.90;99.90;;;;;;5107469;28;20204;-72
2021/08/07 09:11:32;;;;;;;5.95;3.83;;;21.70;99.90;;;;;;5108109;28;20201;-72
2021/08/07 09:14:21;;;;;;;7.38;3.45;;;21.70;99.90;;;;;;5111041;28;20286;-72
2021/08/07 09:17:11;;;;;;;4.90;3.83;;;21.60;99.90;;;;;;5104694;28;20226;-72
2021/08/07 09:19:56;;;;;;;6.95;4.25;;;21.40;99.90;;;;;;5105505;28;20205;-72
2021/08/07 09:22:26;;;;;;;7.05;3.70;;;21.50;99.90;;;;;;5111828;28;20238;-71
2021/08/07 09:25:02;;;;;;;4.72;3.85;;;21.60;99.90;;;;;;5104578;28;20250;-72
2021/08/07 09:27:36;;;;;;;6.45;3.83;;;21.90;99.90;;;;;;5107752;28;20273;-70
2021/08/07 09:30:24;;;;;;;4.20;3.40;;;22.20;99.90;;;;;;5104075;28;20206;-71
2021/08/07 09:32:53;;;;;;;4.82;4.15;;;21.90;99.90;;;;;;5103773;28;20200;-70
2021/08/07 09:35:22;;;;;;;5.22;3.85;;;21.40;99.90;;;;;;5103582;28;20209;-71
2021/08/07 09:38:11;;;;;;;5.40;3.63;;;21.20;99.90;;;;;;5105549;28;20264;-69
2021/08/07 09:40:50;;;;;;;5.03;4.43;;;21.00;99.90;;;;;;5101395;28;20271;-68
2021/08/07 09:43:21;;;;;;;5.65;4.10;;;20.90;99.90;;;;;;5101710;28;20637;-69
2021/08/07 09:46:03;;;;;;;5.55;3.63;;;20.80;99.90;;;;;;5082642;28;20258;-69
2021/08/07 09:48:33;;;;;;;4.80;4.32;;;20.80;99.90;;;;;;5103106;28;20290;-68
2021/08/07 09:51:00;;;;;;;5.65;3.63;;;20.80;99.90;;;;;;5091449;28;20202;-69
2021/08/07 09:53:28;;;;;;;6.20;4.18;;;20.60;99.90;;;;;;5091680;28;20683;-69
2021/08/07 09:56:04;;;;;;;3.78;3.47;;;20.50;99.90;;;;;;5091687;28;20317;-70
2021/08/07 09:58:32;;;;;;;4.53;4.13;;;20.40;99.90;;;;;;5095903;28;20269;-68
2021/08/07 10:01:00;;;;;;;4.60;4.15;;;20.40;99.90;;;;;;5092650;27;20210;-68
2021/08/07 10:03:29;;;;;;;4.65;3.70;;;20.40;99.90;;;;;;5095236;28;20251;-71
2021/08/07 10:05:57;;;;;;;5.07;4.57;;;20.40;99.90;;;;;;5096448;28;20201;-71
2021/08/07 10:08:24;;;;;;;4.57;4.15;;;20.40;99.90;;;;;;5098274;28;20205;-69
2021/08/07 10:11:08;;;;;;;7.43;3.97;;;20.40;99.90;;;;;;5109444;28;20255;-69
2021/08/07 10:13:37;;;;;;;6.32;3.53;;;20.40;99.90;;;;;;5110498;28;20242;-70
2021/08/07 10:16:05;;;;;;;4.50;3.67;;;20.50;99.90;;;;;;5109174;28;20197;-70
2021/08/07 10:18:33;;;;;;;4.88;3.72;;;20.60;99.90;;;;;;5101822;28;20277;-70
2021/08/07 10:21:04;;;;;;;5.30;3.78;;;20.70;99.90;;;;;;5093074;28;20296;-70
2021/08/07 10:23:33;;;;;;;5.07;4.57;;;20.70;99.90;;;;;;5093558;28;20285;-70
2021/08/07 10:26:02;;;;;;;6.20;4.28;;;20.70;99.90;;;;;;5094900;28;20215;-71
2021/08/07 10:28:31;;;;;;;5.88;3.90;;;20.90;99.90;;;;;;5094066;28;20253;-71
2021/08/07 10:31:02;;;;;;;5.40;4.10;;;20.80;99.90;;;;;;5101957;28;20206;-71
2021/08/07 10:33:30;;;;;;;5.57;4.15;;;20.70;99.90;;;;;;5102803;28;20205;-71
2021/08/07 10:35:57;;;;;;;6.57;4.78;;;20.70;99.90;;;;;;5111173;28;20201;-71
2021/08/07 10:38:25;;;;;;;7.80;4.38;;;20.70;99.90;;;;;;5090515;28;20230;-71
2021/08/07 10:40:54;;;;;;;7.95;3.50;;;20.70;99.90;;;;;;5089760;28;20621;-71
2021/08/07 10:43:22;;;;;;;4.90;4.43;;;20.50;99.90;;;;;;5091165;28;20259;-71
2021/08/07 10:45:49;;;;;;;5.32;4.63;;;20.50;99.90;;;;;;5091120;28;20283;-71
2021/08/07 10:48:37;;;;;;;4.78;3.42;;;20.50;99.90;;;;;;5105154;28;20236;-71
2021/08/07 10:51:41;;;;;;;3.97;3.55;;;20.60;99.90;;;;;;5087985;28;20200;-71
2021/08/07 10:54:32;;;;;;;3.92;3.28;;;20.70;99.90;;;;;;5111394;28;20208;-71
2021/08/07 10:56:59;;;;;;;4.10;3.72;;;20.80;99.90;;;;;;5111597;28;20205;-71
2021/08/07 10:59:27;;;;;;;5.80;3.60;;;20.90;99.90;;;;;;5111770;28;20261;-71
2021/08/07 11:01:56;;;;;;;4.28;3.85;;;20.90;99.90;;;;;;5111613;28;20200;-71
2021/08/07 11:04:47;;;;;;;4.20;3.53;;;21.30;99.90;;;;;;5111534;28;20209;-71
2021/08/07 11:07:19;;;;;;;5.78;4.22;;;21.60;99.90;;;;;;5111515;28;20208;-71
2021/08/07 11:10:06;;;;;;;6.13;3.60;;;21.60;99.90;;;;;;5111849;28;20258;-71
2021/08/07 11:12:34;;;;;;;4.50;3.90;;;21.90;99.90;;;;;;5092134;28;20192;-71
2021/08/07 11:15:09;;;;;;;4.68;3.13;;;22.10;99.90;;;;;;5111171;28;20250;-71
2021/08/07 11:17:48;;;;;;;5.72;3.55;;;22.20;99.90;;;;;;5111836;28;20228;-71
2021/08/07 11:20:53;;;;;;;3.97;3.67;;;22.30;99.90;;;;;;5111481;28;20666;-71
2021/08/07 11:23:23;;;;;;;5.47;2.70;;;22.40;99.90;;;;;;5086537;28;20250;-71
2021/08/07 11:26:01;;;;;;;3.97;3.65;;;22.70;99.90;;;;;;5110711;28;20209;-72
2021/08/07 11:28:29;;;;;;;2.85;2.55;;;22.70;99.90;;;;;;5111038;28;20245;-72
2021/08/07 11:31:25;;;;;;;3.60;3.30;;;22.80;99.90;;;;;;5110767;28;20660;-72
2021/08/07 11:34:23;;;;;;;2.97;2.67;;;22.60;99.90;;;;;;5110948;28;20212;-72
2021/08/07 11:37:21;;;;;;;5.20;2.88;;;22.60;99.90;;;;;;5084286;28;20201;-72
2021/08/07 11:40:11;;;;;;;2.50;2.30;;;22.50;99.90;;;;;;5110574;28;20201;-72
2021/08/07 11:42:41;;;;;;;4.20;2.55;;;21.90;99.90;;;;;;5108338;28;20217;-71
2021/08/07 11:45:09;;;;;;;3.55;2.50;;;21.60;99.90;;;;;;5092058;28;20209;-71
2021/08/07 11:47:48;;;;;;;2.00;1.80;;;22.40;99.90;;;;;;5100120;28;20215;-71
2021/08/07 11:50:15;;;;;;;2.72;2.53;;;23.70;99.90;;;;;;5095259;28;20205;-71
2021/08/07 11:52:44;;;;;;;4.80;2.20;;;24.10;99.90;;;;;;5091128;28;20676;-71
2021/08/07 11:55:11;;;;;;;3.28;2.75;;;23.80;99.90;;;;;;5092878;28;20533;-71
2021/08/07 11:57:38;;;;;;;2.08;1.88;;;24.00;99.90;;;;;;5090695;28;20221;-71
2021/08/07 12:00:26;;;;;;;2.63;2.33;;;23.80;99.90;;;;;;5090137;28;20209;-71
2021/08/07 12:03:02;;;;;;;2.08;1.70;;;23.70;99.90;;;;;;5090076;28;20250;-71
2021/08/07 12:05:29;;;;;;;2.00;1.80;;;23.70;99.90;;;;;;5090296;28;20562;-71
2021/08/07 12:08:07;;;;;;;1.80;1.70;;;24.20;99.90;;;;;;5090395;28;20201;-71
2021/08/07 12:10:35;;;;;;;4.05;2.03;;;24.40;99.90;;;;;;5090159;28;20213;-71
2021/08/07 12:13:03;;;;;;;1.48;1.38;;;24.50;99.90;;;;;;5090124;28;20201;-71
2021/08/07 12:15:30;;;;;;;1.52;1.42;;;24.40;99.90;;;;;;5090057;28;20255;-71
2021/08/07 12:18:00;;;;;;;1.55;1.40;;;24.50;99.90;;;;;;5089957;28;20274;-71
2021/08/07 12:20:28;;;;;;;1.60;1.50;;;24.60;99.90;;;;;;5090375;28;20201;-71
2021/08/07 12:22:56;;;;;;;1.65;1.55;;;24.80;99.90;;;;;;5089627;28;20691;-71
2021/08/07 12:25:25;;;;;;;1.60;1.50;;;24.30;99.90;;;;;;5090264;28;20209;-71
2021/08/07 12:28:02;;;;;;;2.05;1.13;;;24.10;99.90;;;;;;5089557;28;20227;-71
2021/08/07 12:30:29;;;;;;;2.00;1.40;;;23.90;99.90;;;;;;5086092;28;20254;-71
2021/08/07 12:33:17;;;;;;;2.22;1.35;;;23.70;99.90;;;;;;5087841;28;20212;-71
2021/08/07 12:35:45;;;;;;;1.30;1.20;;;24.00;99.90;;;;;;5090545;28;20210;-71
2021/08/07 12:38:16;;;;;;;1.17;1.05;;;24.50;99.90;;;;;;5092598;28;20298;-72
2021/08/07 12:40:46;;;;;;;1.23;1.13;;;24.50;99.90;;;;;;5094484;28;20205;-71
2021/08/07 12:43:14;;;;;;;0.93;0.90;;;24.70;99.90;;;;;;5094216;28;20213;-71
2021/08/07 12:45:42;;;;;;;1.05;0.90;;;24.30;99.90;;;;;;5094562;28;20250;-71
2021/08/07 12:48:09;;;;;;;1.60;1.27;;;24.00;99.90;;;;;;5104460;28;20205;-71
2021/08/07 12:50:36;;;;;;;2.13;1.00;;;23.90;99.90;;;;;;5100625;28;20205;-71
2021/08/07 12:53:04;;;;;;;1.63;1.13;;;23.80;99.90;;;;;;5114084;28;20281;-71
2021/08/07 12:55:33;;;;;;;0.90;0.88;;;23.70;99.90;;;;;;5105101;28;20208;-71
2021/08/07 12:58:14;;;;;;;2.85;1.20;;;23.60;99.90;;;;;;5114201;28;20648;-71